createdAt,value
2022-08-03T00:01:43.823Z,8.13
2022-08-03T00:04:11.926Z,5.25
2022-08-03T00:06:39.435Z,6.65
2022-08-03T00:09:08.357Z,6.15
2022-08-03T00:11:36.911Z,7.75
2022-08-03T00:14:05.779Z,8.10
2022-08-03T00:16:33.328Z,9.07
2022-08-03T00:19:02.582Z,7.47
2022-08-03T00:21:30.237Z,6.10
2022-08-03T00:23:57.728Z,4.93
2022-08-03T00:26:25.368Z,5.18
2022-08-03T00:28:52.873Z,5.82
2022-08-03T00:31:28.386Z,2.63
2022-08-03T00:34:07.868Z,3.75
2022-08-03T00:36:35.904Z,3.33
2022-08-03T00:39:03.554Z,3.30
2022-08-03T00:41:31.001Z,5.40
2022-08-03T00:43:58.430Z,3.63
2022-08-03T00:46:25.964Z,5.05
2022-08-03T00:48:54.289Z,4.53
2022-08-03T00:51:22.996Z,2.80
2022-08-03T00:53:51.093Z,8.18
2022-08-03T00:56:19.055Z,2.47
2022-08-03T00:58:47.129Z,4.20
2022-08-03T01:01:15.170Z,2.88
2022-08-03T01:03:42.912Z,4.00
2022-08-03T01:06:18.888Z,2.67
2022-08-03T01:09:02.829Z,4.45
2022-08-03T01:12:00.469Z,2.83
2022-08-03T01:14:36.073Z,3.15
2022-08-03T01:17:29.832Z,5.43
2022-08-03T01:20:07.222Z,2.63
2022-08-03T01:22:58.657Z,3.55
2022-08-03T01:25:36.495Z,2.50
2022-08-03T01:28:34.633Z,5.03
2022-08-03T01:31:06.818Z,3.17
2022-08-03T01:33:46.542Z,3.78
2022-08-03T01:36:16.436Z,4.55
2022-08-03T01:38:48.177Z,4.18
2022-08-03T01:41:25.207Z,3.97
2022-08-03T01:43:58.933Z,2.33
2022-08-03T01:46:48.772Z,4.22
2022-08-03T01:49:18.025Z,5.70
2022-08-03T01:51:57.887Z,3.42
2022-08-03T01:54:53.502Z,7.63
2022-08-03T01:57:22.673Z,4.80
2022-08-03T01:59:52.370Z,7.50
2022-08-03T02:02:32.719Z,8.07
2022-08-03T02:05:03.516Z,8.60
2022-08-03T02:07:33.166Z,7.20
2022-08-03T02:10:02.975Z,4.95
2022-08-03T02:12:32.671Z,5.63
2022-08-03T02:15:02.089Z,4.85
2022-08-03T02:17:39.546Z,3.67
2022-08-03T02:20:13.406Z,5.47
2022-08-03T02:22:42.621Z,4.22
2022-08-03T02:25:11.754Z,6.53
2022-08-03T02:27:46.572Z,5.72
2022-08-03T02:30:14.721Z,5.28
2022-08-03T02:32:48.736Z,6.63
2022-08-03T02:35:18.629Z,3.85
2022-08-03T02:37:50.503Z,6.18
2022-08-03T02:40:21.195Z,3.88
2022-08-03T02:42:52.762Z,4.18
2022-08-03T02:45:21.169Z,4.97
2022-08-03T02:47:53.621Z,4.43
2022-08-03T02:50:24.095Z,4.18
2022-08-03T02:52:53.404Z,8.30
2022-08-03T02:55:23.273Z,7.35
2022-08-03T02:57:51.601Z,6.53
2022-08-03T03:00:27.528Z,6.53
2022-08-03T03:03:01.729Z,5.68
2022-08-03T03:05:52.073Z,5.50
2022-08-03T03:08:25.840Z,3.03
2022-08-03T03:11:00.035Z,6.07
2022-08-03T03:13:32.006Z,3.28
2022-08-03T03:16:02.755Z,3.65
2022-08-03T03:18:33.331Z,3.33
2022-08-03T03:21:03.143Z,4.65
2022-08-03T03:23:32.150Z,2.65
2022-08-03T03:26:02.503Z,3.65
2022-08-03T03:28:31.709Z,3.50
2022-08-03T03:31:00.823Z,2.47
2022-08-03T03:33:28.791Z,4.15
2022-08-03T03:35:57.789Z,5.10
2022-08-03T03:38:25.403Z,3.95
2022-08-03T03:40:52.998Z,3.28
2022-08-03T03:43:20.630Z,3.00
2022-08-03T03:45:48.501Z,5.32
2022-08-03T03:48:16.448Z,3.80
2022-08-03T03:50:44.539Z,6.32
2022-08-03T03:53:13.939Z,3.92
2022-08-03T03:55:59.807Z,5.05
2022-08-03T03:58:30.136Z,7.57
2022-08-03T04:00:57.908Z,3.20
2022-08-03T04:03:25.354Z,2.78
2022-08-03T04:06:11.332Z,3.55
2022-08-03T04:08:57.220Z,5.55
2022-08-03T04:11:38.601Z,4.82
2022-08-03T04:14:13.538Z,9.88
2022-08-03T04:16:45.240Z,12.75
2022-08-03T04:19:23.258Z,6.50
2022-08-03T04:21:57.266Z,9.57
2022-08-03T04:24:39.312Z,8.90
2022-08-03T04:27:09.803Z,6.50
2022-08-03T04:29:48.330Z,6.03
2022-08-03T04:32:17.825Z,5.93
2022-08-03T04:34:46.040Z,4.78
2022-08-03T04:37:25.397Z,5.57
2022-08-03T04:39:57.611Z,3.53
2022-08-03T04:42:26.652Z,3.70
2022-08-03T04:45:00.866Z,4.65
2022-08-03T04:47:32.453Z,4.05
2022-08-03T04:50:02.269Z,4.10
2022-08-03T04:52:30.468Z,3.30
2022-08-03T04:54:57.978Z,5.07
2022-08-03T04:57:25.393Z,2.70
2022-08-03T05:00:02.094Z,3.70
2022-08-03T05:02:32.186Z,4.28
2022-08-03T05:05:00.261Z,4.88
2022-08-03T05:07:35.508Z,4.13
2022-08-03T05:10:14.904Z,3.80
2022-08-03T05:12:45.477Z,4.53
2022-08-03T05:15:13.267Z,4.65
2022-08-03T05:17:40.911Z,5.03
2022-08-03T05:20:08.933Z,4.28
2022-08-03T05:22:36.404Z,4.10
2022-08-03T05:25:04.338Z,5.47
2022-08-03T05:27:31.889Z,3.75
2022-08-03T05:30:26.823Z,5.97
2022-08-03T05:32:46.769Z,2.95
2022-08-03T05:35:56.195Z,2.83
2022-08-03T05:38:03.438Z,3.05
2022-08-03T05:40:31.541Z,2.13
2022-08-03T05:42:59.231Z,3.10
2022-08-03T05:45:28.358Z,4.50
2022-08-03T05:47:56.269Z,8.18
2022-08-03T05:50:24.073Z,3.72
2022-08-03T05:52:51.532Z,3.72
2022-08-03T05:55:19.167Z,3.47
2022-08-03T05:57:48.008Z,8.35
2022-08-03T06:00:17.358Z,4.20
2022-08-03T06:02:44.829Z,6.57
2022-08-03T06:05:12.477Z,4.80
2022-08-03T06:07:40.004Z,5.07
2022-08-03T06:10:34.554Z,6.72
2022-08-03T06:12:56.444Z,3.70
2022-08-03T06:15:23.903Z,3.97
2022-08-03T06:17:52.129Z,4.05
2022-08-03T06:20:21.292Z,3.17
2022-08-03T06:23:00.162Z,2.63
2022-08-03T06:25:29.166Z,3.47
2022-08-03T06:27:57.260Z,4.55
2022-08-03T06:30:24.824Z,2.67
2022-08-03T06:32:52.608Z,2.47
2022-08-03T06:35:20.529Z,2.47
2022-08-03T06:37:49.956Z,5.47
2022-08-03T06:40:28.655Z,4.65
2022-08-03T06:43:00.739Z,3.05
2022-08-03T06:45:31.727Z,1.40
2022-08-03T06:48:06.824Z,2.50
2022-08-03T06:50:36.443Z,3.28
2022-08-03T06:53:05.519Z,1.98
2022-08-03T06:55:33.241Z,2.45
2022-08-03T06:58:09.310Z,3.45
2022-08-03T07:00:36.779Z,2.72
2022-08-03T07:03:04.383Z,3.63
2022-08-03T07:05:33.603Z,4.93
2022-08-03T07:08:02.217Z,7.43
2022-08-03T07:10:30.011Z,6.15
2022-08-03T07:12:57.546Z,3.83
2022-08-03T07:15:53.673Z,2.22
2022-08-03T07:18:13.104Z,4.07
2022-08-03T07:20:41.085Z,1.48
2022-08-03T07:23:08.495Z,3.15
2022-08-03T07:25:36.195Z,7.22
2022-08-03T07:28:03.981Z,2.30
2022-08-03T07:30:31.617Z,3.90
2022-08-03T07:32:59.091Z,2.15
2022-08-03T07:35:26.541Z,1.80
2022-08-03T07:37:55.123Z,2.88
2022-08-03T07:40:23.163Z,4.03
2022-08-03T07:45:23.502Z,1.58
2022-08-03T07:47:53.475Z,1.73
2022-08-03T07:50:22.490Z,2.55
2022-08-03T07:52:51.833Z,2.60
2022-08-03T07:55:22.265Z,4.72
2022-08-03T07:58:02.148Z,3.10
2022-08-03T08:00:29.873Z,6.95
2022-08-03T08:02:57.421Z,2.10
2022-08-03T08:05:25.167Z,3.88
2022-08-03T08:07:52.595Z,2.67
2022-08-03T08:10:20.484Z,1.98
2022-08-03T08:12:48.464Z,2.85
2022-08-03T08:15:16.250Z,3.13
2022-08-03T08:18:05.001Z,4.82
2022-08-03T08:20:34.972Z,3.17
2022-08-03T08:23:13.927Z,1.55
2022-08-03T08:25:56.276Z,1.80
2022-08-03T08:28:32.164Z,2.47
2022-08-03T08:31:01.294Z,2.15
2022-08-03T08:33:37.663Z,5.47
2022-08-03T08:36:14.820Z,3.88
2022-08-03T08:38:44.719Z,5.20
2022-08-03T08:41:14.250Z,3.42
2022-08-03T08:43:42.327Z,3.75
2022-08-03T08:46:23.274Z,5.10
2022-08-03T08:48:53.148Z,2.80
2022-08-03T08:51:22.509Z,3.05
2022-08-03T08:53:54.005Z,2.78
2022-08-03T08:56:25.676Z,3.92
2022-08-03T08:59:01.352Z,2.20
2022-08-03T09:01:29.252Z,5.07
2022-08-03T09:03:56.863Z,4.82
2022-08-03T09:06:24.959Z,2.65
2022-08-03T09:08:52.488Z,5.20
2022-08-03T09:11:57.651Z,2.60
2022-08-03T09:14:36.632Z,1.80
2022-08-03T09:17:04.424Z,3.03
2022-08-03T09:19:33.589Z,2.28
2022-08-03T09:22:18.998Z,2.35
2022-08-03T09:25:23.415Z,3.67
2022-08-03T09:27:51.589Z,2.50
2022-08-03T09:30:33.218Z,1.77
2022-08-03T09:33:04.638Z,5.65
2022-08-03T09:38:28.916Z,2.95
2022-08-03T09:41:00.414Z,2.78
2022-08-03T09:43:28.738Z,3.20
2022-08-03T09:46:07.705Z,3.40
2022-08-03T09:48:36.951Z,2.92
2022-08-03T09:51:13.239Z,6.45
2022-08-03T09:53:57.252Z,1.48
2022-08-03T09:56:41.984Z,2.70
2022-08-03T09:59:10.958Z,1.83
2022-08-03T10:01:41.941Z,2.97
2022-08-03T10:04:22.772Z,3.38
2022-08-03T10:07:10.679Z,3.35
2022-08-03T10:09:38.383Z,3.05
2022-08-03T10:12:14.164Z,4.50
2022-08-03T10:14:45.815Z,1.92
2022-08-03T10:17:13.898Z,10.80
2022-08-03T10:19:41.870Z,4.25
2022-08-03T10:22:20.128Z,2.97
2022-08-03T10:24:58.806Z,3.72
2022-08-03T10:27:32.545Z,4.05
2022-08-03T10:30:05.054Z,2.20
2022-08-03T10:32:40.683Z,4.55
2022-08-03T10:35:20.765Z,1.92
2022-08-03T10:38:10.404Z,3.22
2022-08-03T10:40:48.902Z,2.90
2022-08-03T10:43:42.489Z,3.28
2022-08-03T10:46:09.985Z,5.97
2022-08-03T10:48:38.393Z,2.40
2022-08-03T10:51:07.670Z,2.47
2022-08-03T10:53:40.690Z,5.15
2022-08-03T10:56:51.978Z,2.72
2022-08-03T10:59:47.343Z,3.25
2022-08-03T11:02:16.040Z,6.05
2022-08-03T11:04:45.422Z,2.28
2022-08-03T11:07:23.167Z,5.00
2022-08-03T11:09:55.208Z,3.53
2022-08-03T11:12:32.527Z,2.30
2022-08-03T11:15:05.249Z,2.58
2022-08-03T11:17:46.832Z,3.42
2022-08-03T11:20:52.231Z,3.15
2022-08-03T11:24:05.371Z,4.15
2022-08-03T11:26:28.851Z,3.30
2022-08-03T11:29:29.556Z,4.05
2022-08-03T11:31:57.368Z,2.28
2022-08-03T11:34:25.274Z,3.92
2022-08-03T11:37:23.121Z,3.28
2022-08-03T11:39:54.713Z,2.80
2022-08-03T11:42:25.675Z,3.13
2022-08-03T11:44:55.725Z,1.85
2022-08-03T11:47:24.510Z,5.32
2022-08-03T11:49:55.255Z,3.15
2022-08-03T11:52:27.174Z,3.28
2022-08-03T11:54:56.866Z,2.22
2022-08-03T11:59:02.757Z,3.35
2022-08-03T12:00:31.917Z,4.70
2022-08-03T12:03:07.073Z,3.28
2022-08-03T12:05:51.909Z,4.47
2022-08-03T12:08:33.471Z,5.57
2022-08-03T12:11:04.740Z,6.07
2022-08-03T12:14:44.394Z,2.10
2022-08-03T12:16:30.458Z,4.03
2022-08-03T12:19:03.268Z,3.88
2022-08-03T12:21:31.883Z,3.80
2022-08-03T12:24:05.989Z,2.65
2022-08-03T12:26:59.032Z,3.65
2022-08-03T12:29:27.594Z,2.80
2022-08-03T12:31:56.157Z,3.97
2022-08-03T12:34:23.781Z,4.10
2022-08-03T12:36:53.227Z,6.80
2022-08-03T12:39:25.339Z,2.80
2022-08-03T12:41:57.038Z,3.67
2022-08-03T12:44:35.417Z,4.95
2022-08-03T12:47:04.517Z,3.05
2022-08-03T12:49:53.011Z,2.38
2022-08-03T12:52:22.617Z,2.55
2022-08-03T12:54:58.466Z,3.37
2022-08-03T12:57:26.288Z,3.72
2022-08-03T12:59:56.082Z,6.13
2022-08-03T13:02:26.302Z,4.03
2022-08-03T13:04:54.963Z,5.35
2022-08-03T13:07:23.371Z,3.63
2022-08-03T13:09:56.106Z,2.83
2022-08-03T13:12:30.024Z,4.25
2022-08-03T13:14:59.703Z,2.58
2022-08-03T13:17:28.298Z,9.23
2022-08-03T13:19:56.582Z,4.22
2022-08-03T13:22:27.495Z,2.88
2022-08-03T13:24:58.776Z,2.50
2022-08-03T13:28:03.979Z,2.38
2022-08-03T13:30:17.891Z,3.90
2022-08-03T13:32:58.931Z,3.47
2022-08-03T13:35:26.582Z,5.72
2022-08-03T13:37:54.052Z,3.75
2022-08-03T13:40:23.593Z,5.57
2022-08-03T13:42:51.376Z,5.35
2022-08-03T13:45:18.899Z,4.07
2022-08-03T13:47:46.382Z,5.13
2022-08-03T13:50:13.830Z,2.30
2022-08-03T13:52:41.704Z,4.07
2022-08-03T13:55:09.602Z,3.88
2022-08-03T13:58:04.380Z,4.85
2022-08-03T14:00:28.570Z,9.00
2022-08-03T14:03:12.783Z,4.28
2022-08-03T14:05:42.422Z,2.92
2022-08-03T14:08:10.915Z,3.72
2022-08-03T14:10:41.062Z,3.67
2022-08-03T14:13:09.115Z,2.20
2022-08-03T14:15:37.657Z,5.18
2022-08-03T14:18:13.005Z,2.88
2022-08-03T14:20:48.973Z,4.32
2022-08-03T14:23:19.070Z,4.63
2022-08-03T14:25:50.470Z,2.58
2022-08-03T14:28:23.869Z,5.93
2022-08-03T14:30:56.165Z,4.35
2022-08-03T14:33:24.168Z,7.50
2022-08-03T14:35:52.537Z,5.50
2022-08-03T14:38:21.100Z,2.35
2022-08-03T14:40:49.158Z,4.38
2022-08-03T14:43:21.451Z,4.97
2022-08-03T14:45:53.769Z,4.28
2022-08-03T14:50:27.793Z,6.05
2022-08-03T14:51:10.498Z,4.40
2022-08-03T14:53:37.982Z,4.55
2022-08-03T14:56:10.043Z,8.70
2022-08-03T14:58:38.992Z,2.63
2022-08-03T15:02:05.976Z,2.67
2022-08-03T15:03:55.112Z,4.78
2022-08-03T15:06:22.647Z,3.08
2022-08-03T15:09:13.882Z,1.83
2022-08-03T15:11:38.732Z,5.20
2022-08-03T15:14:09.177Z,3.22
2022-08-03T15:16:38.272Z,6.50
2022-08-03T15:20:02.752Z,4.57
2022-08-03T15:21:53.190Z,4.90
2022-08-03T15:24:20.829Z,2.95
2022-08-03T15:26:48.351Z,3.22
2022-08-03T15:30:06.673Z,2.33
2022-08-03T15:32:08.690Z,3.72
2022-08-03T15:34:36.992Z,2.92
2022-08-03T15:37:16.363Z,6.05
2022-08-03T15:39:59.783Z,4.45
2022-08-03T15:42:29.770Z,4.63
2022-08-03T15:44:57.330Z,3.70
2022-08-03T15:47:24.922Z,5.15
2022-08-03T15:49:52.453Z,3.70
2022-08-03T15:52:19.945Z,5.35
2022-08-03T15:54:47.442Z,5.32
2022-08-03T15:57:14.973Z,7.13
2022-08-03T15:59:42.449Z,5.20
2022-08-03T16:02:10.514Z,10.35
2022-08-03T16:04:37.961Z,6.93
2022-08-03T16:07:05.620Z,7.97
2022-08-03T16:09:43.165Z,6.88
2022-08-03T16:12:16.349Z,4.70
2022-08-03T16:14:54.435Z,7.65
2022-08-03T16:17:22.566Z,7.43
2022-08-03T16:19:50.999Z,4.18
2022-08-03T16:22:23.128Z,8.25
2022-08-03T16:24:52.863Z,3.42
2022-08-03T16:27:56.815Z,3.15
2022-08-03T16:30:09.831Z,4.18
2022-08-03T16:32:40.257Z,3.15
2022-08-03T16:35:08.198Z,3.63
2022-08-03T16:37:38.597Z,5.05
2022-08-03T16:40:19.175Z,6.57
2022-08-03T16:42:47.708Z,3.72
2022-08-03T16:45:15.315Z,3.90
2022-08-03T16:47:42.837Z,10.55
2022-08-03T16:50:15.931Z,4.43
2022-08-03T16:52:47.207Z,4.30
2022-08-03T16:55:42.908Z,4.82
2022-08-03T16:58:05.359Z,10.48
2022-08-03T17:00:41.664Z,10.25
2022-08-03T17:03:12.757Z,7.68
2022-08-03T17:05:47.325Z,8.02
2022-08-03T17:08:16.422Z,8.20
2022-08-03T17:10:54.121Z,6.55
2022-08-03T17:13:22.981Z,5.45
2022-08-03T17:16:08.879Z,4.93
2022-08-03T17:18:42.250Z,8.20
2022-08-03T17:21:17.440Z,5.75
2022-08-03T17:23:52.044Z,8.87
2022-08-03T17:26:22.266Z,4.57
2022-08-03T17:28:57.270Z,3.60
2022-08-03T17:31:31.162Z,8.20
2022-08-03T17:34:02.158Z,10.85
2022-08-03T17:37:02.223Z,8.70
2022-08-03T17:39:35.850Z,7.53
2022-08-03T17:42:29.418Z,9.82
2022-08-03T17:45:02.297Z,8.68
2022-08-03T17:47:42.459Z,23.02
2022-08-03T17:50:25.100Z,32.78
2022-08-03T17:53:07.249Z,52.78
2022-08-03T17:55:56.671Z,56.25
2022-08-03T17:58:55.007Z,60.28
2022-08-03T18:02:16.619Z,55.40
2022-08-03T18:04:57.303Z,36.03
2022-08-03T18:07:40.998Z,34.13
2022-08-03T18:13:10.477Z,19.13
2022-08-03T18:15:44.615Z,18.58
2022-08-03T18:18:16.052Z,12.90
2022-08-03T18:20:57.483Z,13.68
2022-08-03T18:23:37.263Z,10.60
2022-08-03T18:26:11.967Z,14.43
2022-08-03T18:28:40.689Z,17.38
2022-08-03T18:31:11.987Z,21.10
2022-08-03T18:34:18.155Z,17.88
2022-08-03T18:36:31.126Z,12.57
2022-08-03T18:39:02.398Z,12.43
2022-08-03T18:41:34.358Z,25.58
2022-08-03T18:44:09.205Z,20.17
2022-08-03T18:47:26.916Z,13.63
2022-08-03T18:50:22.887Z,13.57
2022-08-03T18:53:15.663Z,8.48
2022-08-03T18:56:07.427Z,8.65
2022-08-03T18:59:02.485Z,8.02
2022-08-03T19:01:58.165Z,6.80
2022-08-03T19:05:02.311Z,6.40
2022-08-03T19:07:36.114Z,7.75
2022-08-03T19:10:09.807Z,4.82
2022-08-03T19:12:45.569Z,6.22
2022-08-03T19:15:15.751Z,5.65
2022-08-03T19:17:52.894Z,7.43
2022-08-03T19:20:31.174Z,7.65
2022-08-03T19:22:59.967Z,4.75
2022-08-03T19:28:17.794Z,4.63
2022-08-03T19:30:46.377Z,6.35
2022-08-03T19:33:22.654Z,5.80
2022-08-03T19:35:54.904Z,4.93
2022-08-03T19:38:29.114Z,7.43
2022-08-03T19:41:03.683Z,5.47
2022-08-03T19:43:52.671Z,5.90
2022-08-03T19:46:30.108Z,5.57
2022-08-03T19:49:14.595Z,12.13
2022-08-03T19:51:58.391Z,7.25
2022-08-03T19:54:53.883Z,8.55
2022-08-03T19:57:24.702Z,9.85
2022-08-03T19:59:54.044Z,8.23
2022-08-03T20:02:22.115Z,7.05
2022-08-03T20:04:59.917Z,9.82
2022-08-03T20:07:32.147Z,7.95
2022-08-03T20:10:02.102Z,8.88
2022-08-03T20:12:34.372Z,8.90
2022-08-03T20:15:07.062Z,10.13
2022-08-03T20:20:33.461Z,12.70
2022-08-03T20:23:07.199Z,11.95
2022-08-03T20:25:48.983Z,13.43
2022-08-03T20:28:34.946Z,11.85
2022-08-03T20:31:18.109Z,6.93
2022-08-03T20:33:46.315Z,8.60
2022-08-03T20:36:18.566Z,10.43
2022-08-03T20:38:52.022Z,9.70
2022-08-03T20:41:19.961Z,14.10
2022-08-03T20:43:49.394Z,11.27
2022-08-03T20:46:30.031Z,11.13
2022-08-03T20:49:06.231Z,7.00
2022-08-03T20:51:50.721Z,6.90
2022-08-03T20:54:29.423Z,10.93
2022-08-03T20:57:00.101Z,4.63
2022-08-03T20:59:47.057Z,5.55
2022-08-03T21:02:30.383Z,6.25
2022-08-03T21:05:03.403Z,6.77
2022-08-03T21:08:05.715Z,5.32
2022-08-03T21:10:33.227Z,8.05
2022-08-03T21:13:03.794Z,12.43
2022-08-03T21:13:09.723Z,5.72
2022-08-03T21:13:35.188Z,9.55
2022-08-03T21:16:14.075Z,5.72
2022-08-03T21:18:49.972Z,4.80
2022-08-03T21:21:22.140Z,7.32
2022-08-03T21:23:52.769Z,6.07
2022-08-03T21:26:23.560Z,4.75
2022-08-03T21:28:54.822Z,8.25
2022-08-03T21:31:25.316Z,5.82
2022-08-03T21:33:59.615Z,5.57
2022-08-03T21:36:32.357Z,6.80
2022-08-03T21:39:00.517Z,4.95
2022-08-03T21:41:30.929Z,5.70
2022-08-03T21:43:59.402Z,7.65
2022-08-03T21:46:29.751Z,5.18
2022-08-03T21:50:05.893Z,6.25
2022-08-03T21:51:52.375Z,5.80
2022-08-03T21:54:21.869Z,7.32
2022-08-03T21:56:53.501Z,3.78
2022-08-03T21:59:23.368Z,3.45
2022-08-03T22:01:55.484Z,4.80
2022-08-03T22:04:50.160Z,3.97
2022-08-03T22:07:15.943Z,3.70
2022-08-03T22:09:51.343Z,5.63
2022-08-03T22:12:27.857Z,5.78
2022-08-03T22:15:00.741Z,6.65
2022-08-03T22:17:55.987Z,5.30
2022-08-03T22:20:22.926Z,7.15
2022-08-03T22:22:56.625Z,3.40
2022-08-03T22:25:29.325Z,3.65
2022-08-03T22:28:02.397Z,2.85
2022-08-03T22:30:30.103Z,4.88
2022-08-03T22:32:59.465Z,6.78
2022-08-03T22:35:28.097Z,4.70
2022-08-03T22:37:57.974Z,4.72
2022-08-03T22:40:26.684Z,5.28
2022-08-03T22:42:55.082Z,3.92
2022-08-03T22:46:08.835Z,4.65
2022-08-03T22:48:11.381Z,4.60
2022-08-03T22:50:39.283Z,3.53
2022-08-03T22:53:07.802Z,6.20
2022-08-03T22:55:36.438Z,9.95
2022-08-03T22:58:03.970Z,6.65
2022-08-03T23:00:31.664Z,4.85
2022-08-03T23:03:02.068Z,6.15
2022-08-03T23:06:00.990Z,5.68
2022-08-03T23:08:24.551Z,5.53
2022-08-03T23:10:53.980Z,6.30
2022-08-03T23:13:25.475Z,5.05
2022-08-03T23:15:58.229Z,6.10
2022-08-03T23:18:32.959Z,5.38
2022-08-03T23:21:05.998Z,3.78
2022-08-03T23:23:44.592Z,3.22
2022-08-03T23:26:14.035Z,5.55
2022-08-03T23:28:47.119Z,3.90
2022-08-03T23:31:16.048Z,7.45
2022-08-03T23:33:45.733Z,3.92
2022-08-03T23:36:30.921Z,4.18
2022-08-03T23:39:02.846Z,3.88
2022-08-03T23:44:00.953Z,4.60
2022-08-03T23:46:30.592Z,6.05
2022-08-03T23:48:59.940Z,5.78
2022-08-03T23:51:37.038Z,5.60
2022-08-03T23:54:21.932Z,3.67
2022-08-03T23:57:13.967Z,3.58
2022-08-03T23:59:41.361Z,3.17
